sensor_id;sensor_type;location;lat;lon;timestamp;pressure;altitude;pressure_sealevel;temperature;humidity
49801;BME280;35698;50.232;30.540;2023-04-08T15:25:08;100862.08;;;20.54;50.40
49801;BME280;35698;50.232;30.540;2023-04-08T15:26:19;100866.12;;;20.39;51.17
49801;BME280;35698;50.232;30.540;2023-04-08T15:27:22;100858.00;;;20.29;50.92
49801;BME280;35698;50.232;30.540;2023-04-08T15:28:26;100858.81;;;20.20;51.31
49801;BME280;35698;50.232;30.540;2023-04-08T15:29:37;100863.23;;;20.30;51.70
49801;BME280;35698;50.232;30.540;2023-04-08T15:30:42;100861.63;;;20.18;52.12
49801;BME280;35698;50.232;30.540;2023-04-08T15:31:45;100867.80;;;20.09;51.95
49801;BME280;35698;50.232;30.540;2023-04-08T15:32:57;100866.72;;;20.21;52.21
49801;BME280;35698;50.232;30.540;2023-04-08T15:34:00;100867.98;;;19.87;52.85
49801;BME280;35698;50.232;30.540;2023-04-08T15:35:18;100868.57;;;19.90;53.38
49801;BME280;35698;50.232;30.540;2023-04-08T15:36:23;100870.80;;;19.85;53.44
49801;BME280;35698;50.232;30.540;2023-04-08T15:37:34;100861.13;;;20.04;53.29
49801;BME280;35698;50.232;30.540;2023-04-08T15:38:37;100863.20;;;19.90;53.35
49801;BME280;35698;50.232;30.540;2023-04-08T15:39:41;100872.17;;;19.80;54.05
49801;BME280;35698;50.232;30.540;2023-04-08T15:40:44;100866.81;;;19.80;53.92
49801;BME280;35698;50.232;30.540;2023-04-08T15:41:49;100870.93;;;19.84;54.16
49801;BME280;35698;50.232;30.540;2023-04-08T15:43:01;100861.80;;;19.96;54.22
49801;BME280;35698;50.232;30.540;2023-04-08T15:44:04;100872.05;;;19.60;55.05
49801;BME280;35698;50.232;30.540;2023-04-08T15:45:08;100877.94;;;19.43;56.02
49801;BME280;35698;50.232;30.540;2023-04-08T15:46:25;100873.44;;;19.12;57.20
49801;BME280;35698;50.232;30.540;2023-04-08T15:47:29;100872.41;;;19.03;57.22
49801;BME280;35698;50.232;30.540;2023-04-08T15:48:40;100874.63;;;19.19;57.42
49801;BME280;35698;50.232;30.540;2023-04-08T15:49:43;100873.70;;;19.09;57.54
49801;BME280;35698;50.232;30.540;2023-04-08T15:50:54;100874.67;;;19.08;58.06
49801;BME280;35698;50.232;30.540;2023-04-08T15:51:57;100871.14;;;19.07;58.29
49801;BME280;35698;50.232;30.540;2023-04-08T15:53:19;100880.31;;;19.05;57.98
49801;BME280;35698;50.232;30.540;2023-04-08T15:54:22;100874.66;;;18.53;59.59
49801;BME280;35698;50.232;30.540;2023-04-08T15:55:38;100868.21;;;18.56;60.04
49801;BME280;35698;50.232;30.540;2023-04-08T15:56:42;100869.80;;;18.47;59.89
49801;BME280;35698;50.232;30.540;2023-04-08T15:59:27;100876.97;;;18.58;59.04
49801;BME280;35698;50.232;30.540;2023-04-08T16:00:38;100874.79;;;18.41;59.33
49801;BME280;35698;50.232;30.540;2023-04-08T16:01:42;100876.61;;;18.51;59.16
49801;BME280;35698;50.232;30.540;2023-04-08T16:03:03;100870.66;;;18.25;58.79
49801;BME280;35698;50.232;30.540;2023-04-08T16:04:14;100883.91;;;18.72;58.08
49801;BME280;35698;50.232;30.540;2023-04-08T16:05:18;100870.90;;;18.33;58.46
49801;BME280;35698;50.232;30.540;2023-04-08T16:06:39;100881.23;;;18.38;58.54
49801;BME280;35698;50.232;30.540;2023-04-08T16:07:42;100872.11;;;18.41;58.08
49801;BME280;35698;50.232;30.540;2023-04-08T16:08:48;100878.91;;;18.56;57.03
49801;BME280;35698;50.232;30.540;2023-04-08T16:10:00;100878.29;;;18.86;57.01
49801;BME280;35698;50.232;30.540;2023-04-08T16:11:04;100873.70;;;18.65;56.50
49801;BME280;35698;50.232;30.540;2023-04-08T16:12:25;100883.31;;;18.68;56.21
49801;BME280;35698;50.232;30.540;2023-04-08T16:13:29;100876.98;;;18.35;56.54
49801;BME280;35698;50.232;30.540;2023-04-08T16:14:40;100880.14;;;18.29;56.99
49801;BME280;35698;50.232;30.540;2023-04-08T16:15:44;100877.10;;;18.34;56.74
49801;BME280;35698;50.232;30.540;2023-04-08T16:17:05;100876.01;;;18.25;56.63
49801;BME280;35698;50.232;30.540;2023-04-08T16:18:17;100884.27;;;18.33;56.96
49801;BME280;35698;50.232;30.540;2023-04-08T16:19:20;100881.48;;;18.24;56.63
49801;BME280;35698;50.232;30.540;2023-04-08T16:20:42;100881.84;;;18.42;56.18
49801;BME280;35698;50.232;30.540;2023-04-08T16:21:48;100887.07;;;18.43;55.83
49801;BME280;35698;50.232;30.540;2023-04-08T16:22:59;100887.09;;;18.65;55.74
49801;BME280;35698;50.232;30.540;2023-04-08T16:24:03;100886.83;;;18.24;56.15
49801;BME280;35698;50.232;30.540;2023-04-08T16:25:14;100885.98;;;18.34;56.21
49801;BME280;35698;50.232;30.540;2023-04-08T16:26:18;100890.13;;;18.05;56.69
49801;BME280;35698;50.232;30.540;2023-04-08T16:27:29;100898.39;;;18.13;56.96
49801;BME280;35698;50.232;30.540;2023-04-08T16:28:33;100902.53;;;18.17;56.84
49801;BME280;35698;50.232;30.540;2023-04-08T16:29:44;100908.23;;;18.35;56.07
49801;BME280;35698;50.232;30.540;2023-04-08T16:30:48;100904.22;;;18.41;55.91
49801;BME280;35698;50.232;30.540;2023-04-08T16:31:51;100907.62;;;18.54;55.61
49801;BME280;35698;50.232;30.540;2023-04-08T16:33:05;100921.49;;;18.81;55.46
49801;BME280;35698;50.232;30.540;2023-04-08T16:34:09;100919.69;;;18.71;55.44
49801;BME280;35698;50.232;30.540;2023-04-08T16:35:12;100916.27;;;18.80;55.07
49801;BME280;35698;50.232;30.540;2023-04-08T16:36:33;100916.74;;;18.85;54.47
49801;BME280;35698;50.232;30.540;2023-04-08T16:37:49;100919.65;;;18.93;54.74
49801;BME280;35698;50.232;30.540;2023-04-08T16:38:55;100914.92;;;18.85;54.40
49801;BME280;35698;50.232;30.540;2023-04-08T16:40:19;100921.00;;;18.87;54.26
49801;BME280;35698;50.232;30.540;2023-04-08T16:41:41;100923.30;;;18.92;54.07
49801;BME280;35698;50.232;30.540;2023-04-08T16:42:55;100927.12;;;19.10;53.75
49801;BME280;35698;50.232;30.540;2023-04-08T16:43:59;100927.97;;;19.11;53.63
49801;BME280;35698;50.232;30.540;2023-04-08T16:45:10;100932.67;;;19.29;53.75
49801;BME280;35698;50.232;30.540;2023-04-08T16:46:15;100935.51;;;19.17;53.66
49801;BME280;35698;50.232;30.540;2023-04-08T16:47:19;100932.70;;;19.18;53.61
49801;BME280;35698;50.232;30.540;2023-04-08T16:48:40;100944.99;;;19.21;53.43
49801;BME280;35698;50.232;30.540;2023-04-08T16:49:47;100942.19;;;19.22;53.27
49801;BME280;35698;50.232;30.540;2023-04-08T16:50:58;100949.94;;;19.37;53.61
49801;BME280;35698;50.232;30.540;2023-04-08T16:52:02;100947.77;;;19.30;53.47
49801;BME280;35698;50.232;30.540;2023-04-08T16:53:14;100943.95;;;19.44;53.38
49801;BME280;35698;50.232;30.540;2023-04-08T16:54:17;100938.41;;;19.25;53.33
49801;BME280;35698;50.232;30.540;2023-04-08T16:55:31;100943.16;;;19.21;53.64
49801;BME280;35698;50.232;30.540;2023-04-08T16:56:34;100941.17;;;19.03;53.87
49801;BME280;35698;50.232;30.540;2023-04-08T16:57:38;100943.85;;;19.03;54.00
49801;BME280;35698;50.232;30.540;2023-04-08T16:58:59;100935.09;;;19.01;54.03
49801;BME280;35698;50.232;30.540;2023-04-08T17:00:10;100936.06;;;18.99;54.64
49801;BME280;35698;50.232;30.540;2023-04-08T17:01:14;100936.33;;;18.85;54.80
49801;BME280;35698;50.232;30.540;2023-04-08T17:02:17;100933.17;;;18.80;54.94
49801;BME280;35698;50.232;30.540;2023-04-08T17:03:30;100938.77;;;18.88;55.13
49801;BME280;35698;50.232;30.540;2023-04-08T17:04:34;100933.31;;;18.68;55.46
49801;BME280;35698;50.232;30.540;2023-04-08T17:05:37;100937.92;;;18.77;55.49
49801;BME280;35698;50.232;30.540;2023-04-08T17:06:50;100943.88;;;18.80;55.49
49801;BME280;35698;50.232;30.540;2023-04-08T17:07:57;100944.38;;;18.63;55.82
49801;BME280;35698;50.232;30.540;2023-04-08T17:09:01;100930.63;;;18.68;55.74
49801;BME280;35698;50.232;30.540;2023-04-08T17:10:14;100941.45;;;18.77;55.75
49801;BME280;35698;50.232;30.540;2023-04-08T17:11:17;100946.56;;;18.69;55.69
49801;BME280;35698;50.232;30.540;2023-04-08T17:12:21;100944.62;;;18.71;55.39
49801;BME280;35698;50.232;30.540;2023-04-08T17:13:32;100944.00;;;18.79;56.06
49801;BME280;35698;50.232;30.540;2023-04-08T17:14:36;100945.35;;;18.62;56.10
49801;BME280;35698;50.232;30.540;2023-04-08T17:15:48;100944.50;;;18.73;56.08
49801;BME280;35698;50.232;30.540;2023-04-08T17:16:51;100944.59;;;18.60;55.76
49801;BME280;35698;50.232;30.540;2023-04-08T17:17:58;100946.41;;;18.59;55.73
49801;BME280;35698;50.232;30.540;2023-04-08T17:19:01;100952.13;;;18.55;56.04
49801;BME280;35698;50.232;30.540;2023-04-08T17:20:05;100950.67;;;18.51;55.96
49801;BME280;35698;50.232;30.540;2023-04-08T17:21:10;100949.20;;;18.47;55.89
49801;BME280;35698;50.232;30.540;2023-04-08T17:22:27;100962.71;;;18.56;56.04
49801;BME280;35698;50.232;30.540;2023-04-08T17:23:31;100952.61;;;18.38;55.97
49801;BME280;35698;50.232;30.540;2023-04-08T17:24:42;100960.88;;;18.46;56.16
49801;BME280;35698;50.232;30.540;2023-04-08T17:25:46;100958.80;;;18.27;56.33
49801;BME280;35698;50.232;30.540;2023-04-08T17:26:57;100964.26;;;18.25;56.81
49801;BME280;35698;50.232;30.540;2023-04-08T17:28:00;100962.69;;;18.12;56.78
49801;BME280;35698;50.232;30.540;2023-04-08T17:29:11;100963.42;;;18.14;57.22
49801;BME280;35698;50.232;30.540;2023-04-08T17:30:15;100969.33;;;17.95;57.43
49801;BME280;35698;50.232;30.540;2023-04-08T17:31:18;100964.22;;;17.92;57.46
49801;BME280;35698;50.232;30.540;2023-04-08T17:32:25;100961.39;;;17.82;57.62
49801;BME280;35698;50.232;30.540;2023-04-08T17:33:28;100962.36;;;17.81;57.68
49801;BME280;35698;50.232;30.540;2023-04-08T17:34:39;100957.12;;;17.80;58.27
49801;BME280;35698;50.232;30.540;2023-04-08T17:35:43;100961.38;;;17.58;58.62
49801;BME280;35698;50.232;30.540;2023-04-08T17:36:46;100964.52;;;17.52;58.88
49801;BME280;35698;50.232;30.540;2023-04-08T17:37:49;100964.52;;;17.52;58.72
49801;BME280;35698;50.232;30.540;2023-04-08T17:38:53;100971.91;;;17.49;59.04
49801;BME280;35698;50.232;30.540;2023-04-08T17:40:04;100970.54;;;17.43;59.97
49801;BME280;35698;50.232;30.540;2023-04-08T17:41:08;100968.55;;;17.34;59.69
49801;BME280;35698;50.232;30.540;2023-04-08T17:42:11;100970.25;;;17.35;59.69
49801;BME280;35698;50.232;30.540;2023-04-08T17:43:38;100979.80;;;17.50;59.79
49801;BME280;35698;50.232;30.540;2023-04-08T17:44:43;100979.12;;;17.35;59.83
49801;BME280;35698;50.232;30.540;2023-04-08T17:45:50;100980.83;;;17.36;59.86
49801;BME280;35698;50.232;30.540;2023-04-08T17:46:56;100980.71;;;17.38;59.90
49801;BME280;35698;50.232;30.540;2023-04-08T17:48:08;100981.51;;;17.51;59.92
49801;BME280;35698;50.232;30.540;2023-04-08T17:49:12;100978.89;;;17.38;59.88
49801;BME280;35698;50.232;30.540;2023-04-08T17:50:17;100979.00;;;17.37;60.00
49801;BME280;35698;50.232;30.540;2023-04-08T17:51:20;100985.91;;;17.28;60.58
49801;BME280;35698;50.232;30.540;2023-04-08T17:52:23;100988.06;;;17.23;60.58
49801;BME280;35698;50.232;30.540;2023-04-08T17:53:35;100996.30;;;17.20;61.39
49801;BME280;35698;50.232;30.540;2023-04-08T17:54:42;100997.92;;;17.10;61.36
49801;BME280;35698;50.232;30.540;2023-04-08T17:56:07;100996.22;;;17.09;61.60
49801;BME280;35698;50.232;30.540;2023-04-08T17:57:10;100994.30;;;17.11;62.34
49801;BME280;35698;50.232;30.540;2023-04-08T17:58:22;100996.70;;;17.27;62.82
49801;BME280;35698;50.232;30.540;2023-04-08T17:59:26;100996.81;;;17.25;63.00
49801;BME280;35698;50.232;30.540;2023-04-08T18:00:43;100996.81;;;17.25;63.65
49801;BME280;35698;50.232;30.540;2023-04-08T18:01:51;100991.02;;;17.31;63.26
49801;BME280;35698;50.232;30.540;2023-04-08T18:02:57;100999.30;;;17.40;62.99
49801;BME280;35698;50.232;30.540;2023-04-08T18:04:01;100995.03;;;17.37;62.99
49801;BME280;35698;50.232;30.540;2023-04-08T18:05:05;101006.97;;;17.44;62.80
49801;BME280;35698;50.232;30.540;2023-04-08T18:06:36;101000.20;;;17.51;63.02
49801;BME280;35698;50.232;30.540;2023-04-08T18:07:39;101008.50;;;17.35;63.17
49801;BME280;35698;50.232;30.540;2023-04-08T18:08:42;101006.23;;;17.42;63.16
49801;BME280;35698;50.232;30.540;2023-04-08T18:09:48;101006.29;;;17.53;62.73
49801;BME280;35698;50.232;30.540;2023-04-08T18:11:04;101011.92;;;17.61;62.77
49801;BME280;35698;50.232;30.540;2023-04-08T18:12:08;101002.81;;;17.40;62.98
49801;BME280;35698;50.232;30.540;2023-04-08T18:13:11;101007.08;;;17.43;62.92
49801;BME280;35698;50.232;30.540;2023-04-08T18:14:14;100997.92;;;17.34;63.34
49801;BME280;35698;50.232;30.540;2023-04-08T18:15:26;101013.23;;;17.56;63.27
49801;BME280;35698;50.232;30.540;2023-04-08T18:16:29;101007.37;;;17.51;62.96
49801;BME280;35698;50.232;30.540;2023-04-08T18:17:40;101004.22;;;17.69;62.79
49801;BME280;35698;50.232;30.540;2023-04-08T18:18:43;101009.47;;;17.58;62.51
49801;BME280;35698;50.232;30.540;2023-04-08T18:20:06;101013.11;;;17.57;62.60
49801;BME280;35698;50.232;30.540;2023-04-08T18:21:09;101010.22;;;17.60;62.23
49801;BME280;35698;50.232;30.540;2023-04-08T18:22:14;101011.52;;;17.55;62.34
49801;BME280;35698;50.232;30.540;2023-04-08T18:23:25;101010.84;;;17.64;62.50
49801;BME280;35698;50.232;30.540;2023-04-08T18:24:28;101008.28;;;17.62;62.35
49801;BME280;35698;50.232;30.540;2023-04-08T18:25:50;101012.66;;;17.63;62.38
49801;BME280;35698;50.232;30.540;2023-04-08T18:27:02;101012.97;;;17.72;62.84
49801;BME280;35698;50.232;30.540;2023-04-08T18:28:07;101009.45;;;17.71;62.52
49801;BME280;35698;50.232;30.540;2023-04-08T18:29:28;101006.20;;;17.79;62.36
49801;BME280;35698;50.232;30.540;2023-04-08T18:30:40;101011.43;;;17.80;62.50
49801;BME280;35698;50.232;30.540;2023-04-08T18:31:43;101009.56;;;17.69;62.40
49801;BME280;35698;50.232;30.540;2023-04-08T18:33:05;101009.87;;;17.65;62.71
49801;BME280;35698;50.232;30.540;2023-04-08T18:34:08;101007.40;;;17.75;62.27
49801;BME280;35698;50.232;30.540;2023-04-08T18:35:19;101004.55;;;17.89;62.06
49801;BME280;35698;50.232;30.540;2023-04-08T18:36:22;101013.48;;;17.77;62.10
49801;BME280;35698;50.232;30.540;2023-04-08T18:37:44;101016.27;;;17.75;62.16
49801;BME280;35698;50.232;30.540;2023-04-08T18:38:55;101007.22;;;17.89;61.98
49801;BME280;35698;50.232;30.540;2023-04-08T18:39:58;101017.40;;;17.84;61.83
49801;BME280;35698;50.232;30.540;2023-04-08T18:41:20;101013.88;;;17.83;61.66
49801;BME280;35698;50.232;30.540;2023-04-08T18:42:26;101014.33;;;17.77;61.71
49801;BME280;35698;50.232;30.540;2023-04-08T18:43:43;101011.94;;;17.85;61.86
49801;BME280;35698;50.232;30.540;2023-04-08T18:44:46;101017.46;;;17.71;61.80
49801;BME280;35698;50.232;30.540;2023-04-08T18:46:07;101014.36;;;17.64;61.93
49801;BME280;35698;50.232;30.540;2023-04-08T18:47:10;101015.55;;;17.60;62.15
49801;BME280;35698;50.232;30.540;2023-04-08T18:48:32;101009.47;;;17.58;62.24
49801;BME280;35698;50.232;30.540;2023-04-08T18:49:46;101015.05;;;17.55;63.21
49801;BME280;35698;50.232;30.540;2023-04-08T18:50:49;101009.19;;;17.50;62.95
49801;BME280;35698;50.232;30.540;2023-04-08T18:52:06;101009.98;;;17.63;62.98
49801;BME280;35698;50.232;30.540;2023-04-08T18:53:09;101010.44;;;17.57;62.75
49801;BME280;35698;50.232;30.540;2023-04-08T18:54:13;101011.80;;;17.63;62.73
49801;BME280;35698;50.232;30.540;2023-04-08T18:55:16;101015.33;;;17.63;62.65
49801;BME280;35698;50.232;30.540;2023-04-08T18:56:38;101006.91;;;17.57;62.91
49801;BME280;35698;50.232;30.540;2023-04-08T18:57:50;101014.36;;;17.64;63.05
49801;BME280;35698;50.232;30.540;2023-04-08T18:58:53;101018.68;;;17.54;62.83
49801;BME280;35698;50.232;30.540;2023-04-08T19:00:06;101013.51;;;17.64;62.89
49801;BME280;35698;50.232;30.540;2023-04-08T19:01:10;101005.21;;;17.56;62.65
49801;BME280;35698;50.232;30.540;2023-04-08T19:02:16;101009.13;;;17.63;62.56
49801;BME280;35698;50.232;30.540;2023-04-08T19:03:19;101018.00;;;17.63;62.68
49801;BME280;35698;50.232;30.540;2023-04-08T19:04:41;101011.92;;;17.61;62.77
49801;BME280;35698;50.232;30.540;2023-04-08T19:05:47;101006.77;;;17.71;62.54
49801;BME280;35698;50.232;30.540;2023-04-08T19:06:50;101013.70;;;17.74;62.40
49801;BME280;35698;50.232;30.540;2023-04-08T19:08:02;101003.45;;;17.91;62.16
49801;BME280;35698;50.232;30.540;2023-04-08T19:09:06;101002.56;;;17.80;61.91
49801;BME280;35698;50.232;30.540;2023-04-08T19:10:09;101012.28;;;17.81;61.82
49801;BME280;35698;50.232;30.540;2023-04-08T19:11:21;101009.77;;;17.90;61.85
49801;BME280;35698;50.232;30.540;2023-04-08T19:12:24;101002.56;;;17.80;61.78
49801;BME280;35698;50.232;30.540;2023-04-08T19:13:36;101001.98;;;17.87;61.85
49801;BME280;35698;50.232;30.540;2023-04-08T19:14:39;101006.55;;;17.74;62.03
49801;BME280;35698;50.232;30.540;2023-04-08T19:15:43;101008.25;;;17.75;62.14
49801;BME280;35698;50.232;30.540;2023-04-08T19:16:54;101001.87;;;17.89;62.04
49801;BME280;35698;50.232;30.540;2023-04-08T19:17:57;101008.98;;;17.77;62.09
49801;BME280;35698;50.232;30.540;2023-04-08T19:19:09;101002.72;;;17.89;62.11
49801;BME280;35698;50.232;30.540;2023-04-08T19:20:13;101012.40;;;17.79;62.00
49801;BME280;35698;50.232;30.540;2023-04-08T19:21:16;101003.98;;;17.73;62.39
49801;BME280;35698;50.232;30.540;2023-04-08T19:22:19;101000.73;;;17.80;62.10
49801;BME280;35698;50.232;30.540;2023-04-08T19:23:31;101004.31;;;17.92;62.18
49801;BME280;35698;50.232;30.540;2023-04-08T19:24:34;100996.36;;;17.79;62.25
49801;BME280;35698;50.232;30.540;2023-04-08T19:25:38;101000.63;;;17.82;62.14
49801;BME280;35698;50.232;30.540;2023-04-08T19:26:49;101002.38;;;17.94;62.15
49801;BME280;35698;50.232;30.540;2023-04-08T19:27:53;100992.72;;;17.80;62.24
49801;BME280;35698;50.232;30.540;2023-04-08T19:29:04;100996.29;;;17.92;62.28
49801;BME280;35698;50.232;30.540;2023-04-08T19:30:08;101003.76;;;17.76;62.39
49801;BME280;35698;50.232;30.540;2023-04-08T19:31:29;101001.94;;;17.76;62.32
49801;BME280;35698;50.232;30.540;2023-04-08T19:32:40;101006.59;;;17.85;62.36
49801;BME280;35698;50.232;30.540;2023-04-08T19:33:44;101002.28;;;17.72;62.47
49801;BME280;35698;50.232;30.540;2023-04-08T19:35:06;100996.31;;;17.68;62.53
49801;BME280;35698;50.232;30.540;2023-04-08T19:36:10;100997.40;;;17.65;62.66
49801;BME280;35698;50.232;30.540;2023-04-08T19:37:13;100996.31;;;17.68;62.89
49801;BME280;35698;50.232;30.540;2023-04-08T19:38:25;100992.95;;;17.77;63.21
49801;BME280;35698;50.232;30.540;2023-04-08T19:39:28;100992.14;;;17.64;63.29
49801;BME280;35698;50.232;30.540;2023-04-08T19:40:50;100992.25;;;17.62;63.28
49801;BME280;35698;50.232;30.540;2023-04-08T19:42:01;100989.18;;;17.56;64.20
49801;BME280;35698;50.232;30.540;2023-04-08T19:43:05;100981.45;;;17.40;64.66
49801;BME280;35698;50.232;30.540;2023-04-08T19:44:26;100989.75;;;17.48;64.46
49801;BME280;35698;50.232;30.540;2023-04-08T19:45:52;100992.42;;;17.48;64.27
49801;BME280;35698;50.232;30.540;2023-04-08T19:46:56;100993.16;;;17.50;64.00
49801;BME280;35698;50.232;30.540;2023-04-08T19:47:59;100986.85;;;17.51;63.81
49801;BME280;35698;50.232;30.540;2023-04-08T19:49:04;100982.59;;;17.49;63.95
49801;BME280;35698;50.232;30.540;2023-04-08T19:50:08;100990.60;;;17.49;63.98
49801;BME280;35698;50.232;30.540;2023-04-08T19:51:17;100989.02;;;17.46;64.22
49801;BME280;35698;50.232;30.540;2023-04-08T19:52:20;100986.23;;;17.48;64.19
49801;BME280;35698;50.232;30.540;2023-04-08T19:53:32;100989.23;;;17.43;64.69
49801;BME280;35698;50.232;30.540;2023-04-08T19:54:35;100980.59;;;17.40;64.47
49801;BME280;35698;50.232;30.540;2023-04-08T19:56:00;100981.42;;;17.29;64.83
49801;BME280;35698;50.232;30.540;2023-04-08T19:57:22;100987.50;;;17.31;65.09
49801;BME280;35698;50.232;30.540;2023-04-08T19:58:25;100980.80;;;17.25;65.42
49801;BME280;35698;50.232;30.540;2023-04-08T19:59:43;100980.94;;;17.35;65.77
49801;BME280;35698;50.232;30.540;2023-04-08T20:00:46;100986.36;;;17.22;65.68
49801;BME280;35698;50.232;30.540;2023-04-08T20:01:57;100984.01;;;17.42;65.62
49801;BME280;35698;50.232;30.540;2023-04-08T20:03:00;100986.28;;;17.35;65.48
49801;BME280;35698;50.232;30.540;2023-04-08T20:04:14;100983.44;;;17.49;65.31
49801;BME280;35698;50.232;30.540;2023-04-08T20:05:18;100986.98;;;17.26;66.07
49801;BME280;35698;50.232;30.540;2023-04-08T20:06:23;100985.42;;;17.34;65.96
49801;BME280;35698;50.232;30.540;2023-04-08T20:07:44;100983.35;;;17.27;66.26
49801;BME280;35698;50.232;30.540;2023-04-08T20:09:02;100981.87;;;17.23;66.96
49801;BME280;35698;50.232;30.540;2023-04-08T20:10:06;100990.47;;;17.02;67.30
49801;BME280;35698;50.232;30.540;2023-04-08T20:11:18;100984.02;;;17.18;67.38
49801;BME280;35698;50.232;30.540;2023-04-08T20:12:24;100987.47;;;17.07;67.37
49801;BME280;35698;50.232;30.540;2023-04-08T20:13:28;100979.98;;;17.12;67.13
49801;BME280;35698;50.232;30.540;2023-04-08T20:34:04;100982.77;;;17.11;67.40
49801;BME280;35698;50.232;30.540;2023-04-08T20:35:15;100977.50;;;16.73;68.58
49801;BME280;35698;50.232;30.540;2023-04-08T20:36:20;100983.03;;;16.57;68.81
49801;BME280;35698;50.232;30.540;2023-04-08T20:37:23;100979.63;;;16.55;68.61
49801;BME280;35698;50.232;30.540;2023-04-08T20:38:27;100986.34;;;16.48;68.79
49801;BME280;35698;50.232;30.540;2023-04-08T20:39:46;100982.08;;;16.58;69.00
49801;BME280;35698;50.232;30.540;2023-04-08T20:40:50;100991.18;;;16.43;69.10
49801;BME280;35698;50.232;30.540;2023-04-08T20:42:07;100981.55;;;16.53;69.30
49801;BME280;35698;50.232;30.540;2023-04-08T20:43:10;100985.84;;;16.43;69.26
49801;BME280;35698;50.232;30.540;2023-04-08T20:44:14;100986.17;;;16.38;69.72
49801;BME280;35698;50.232;30.540;2023-04-08T20:45:28;100984.11;;;16.54;69.55
49801;BME280;35698;50.232;30.540;2023-04-08T20:46:31;100993.74;;;16.44;69.24
49801;BME280;35698;50.232;30.540;2023-04-08T20:47:48;100979.41;;;16.58;69.06
49801;BME280;35698;50.232;30.540;2023-04-08T20:48:51;100981.16;;;16.46;68.98
49801;BME280;35698;50.232;30.540;2023-04-08T20:50:05;100988.80;;;16.51;69.20
49801;BME280;35698;50.232;30.540;2023-04-08T20:51:09;100989.47;;;16.29;69.58
49801;BME280;35698;50.232;30.540;2023-04-08T20:52:12;100977.84;;;16.30;69.57
49801;BME280;35698;50.232;30.540;2023-04-08T20:53:34;100986.06;;;16.27;69.53
49801;BME280;35698;50.232;30.540;2023-04-08T20:54:40;100981.58;;;16.27;69.74
49801;BME280;35698;50.232;30.540;2023-04-08T20:55:43;100986.27;;;16.24;69.76
49801;BME280;35698;50.232;30.540;2023-04-08T20:56:54;100983.28;;;16.28;69.93
49801;BME280;35698;50.232;30.540;2023-04-08T20:57:57;100981.03;;;16.10;70.33
49801;BME280;35698;50.232;30.540;2023-04-08T20:59:08;100980.30;;;16.20;70.47
49801;BME280;35698;50.232;30.540;2023-04-08T21:00:13;100976.33;;;16.00;70.75
49801;BME280;35698;50.232;30.540;2023-04-08T21:01:20;100980.26;;;15.95;71.01
49801;BME280;35698;50.232;30.540;2023-04-08T21:02:43;100977.57;;;15.82;71.55
49801;BME280;35698;50.232;30.540;2023-04-08T21:03:55;100980.03;;;15.85;72.57
49801;BME280;35698;50.232;30.540;2023-04-08T21:05:00;100984.67;;;15.69;72.72
49801;BME280;35698;50.232;30.540;2023-04-08T21:06:20;100974.67;;;15.72;72.98
49801;BME280;35698;50.232;30.540;2023-04-08T21:07:27;100986.54;;;15.54;73.56
49801;BME280;35698;50.232;30.540;2023-04-08T21:08:30;100977.05;;;15.50;73.85
49801;BME280;35698;50.232;30.540;2023-04-08T21:09:51;100976.49;;;15.45;74.17
49801;BME280;35698;50.232;30.540;2023-04-08T21:10:54;100977.09;;;15.36;74.89
49801;BME280;35698;50.232;30.540;2023-04-08T21:11:58;100980.52;;;15.38;75.00
49801;BME280;35698;50.232;30.540;2023-04-08T21:13:01;100981.97;;;15.29;75.37
49801;BME280;35698;50.232;30.540;2023-04-08T21:14:16;100980.21;;;15.43;75.43
49801;BME280;35698;50.232;30.540;2023-04-08T21:15:19;100977.59;;;15.28;75.29
49801;BME280;35698;50.232;30.540;2023-04-08T21:16:30;100979.66;;;15.37;75.71
49801;BME280;35698;50.232;30.540;2023-04-08T21:17:35;100982.36;;;15.23;75.70
49801;BME280;35698;50.232;30.540;2023-04-08T21:19:02;100982.63;;;15.33;75.42
49801;BME280;35698;50.232;30.540;2023-04-08T21:20:11;100978.09;;;15.21;75.11
49801;BME280;35698;50.232;30.540;2023-04-08T21:21:17;100985.69;;;15.27;75.18
49801;BME280;35698;50.232;30.540;2023-04-08T21:22:37;100979.76;;;15.36;74.94
49801;BME280;35698;50.232;30.540;2023-04-08T21:23:40;100981.41;;;15.24;74.69
49801;BME280;35698;50.232;30.540;2023-04-08T21:24:48;100979.70;;;15.23;74.59
49801;BME280;35698;50.232;30.540;2023-04-08T21:26:12;100986.08;;;15.21;74.80
49801;BME280;35698;50.232;30.540;2023-04-08T21:27:31;100987.29;;;15.29;74.64
49801;BME280;35698;50.232;30.540;2023-04-08T21:28:34;100978.29;;;15.18;74.84
49801;BME280;35698;50.232;30.540;2023-04-08T21:29:42;100984.66;;;15.15;74.78
49801;BME280;35698;50.232;30.540;2023-04-08T21:31:12;100980.66;;;15.22;74.68
49801;BME280;35698;50.232;30.540;2023-04-08T21:32:15;100981.34;;;15.12;75.11
49801;BME280;35698;50.232;30.540;2023-04-08T21:34:58;100986.27;;;15.18;75.14
49801;BME280;35698;50.232;30.540;2023-04-08T21:37:26;100981.73;;;15.05;74.97
49801;BME280;35698;50.232;30.540;2023-04-08T21:38:45;100982.20;;;15.12;74.64
49801;BME280;35698;50.232;30.540;2023-04-08T21:40:07;100982.13;;;14.99;74.68
49801;BME280;35698;50.232;30.540;2023-04-08T21:41:20;100980.61;;;14.95;74.40
49801;BME280;35698;50.232;30.540;2023-04-08T21:42:24;100986.70;;;14.97;74.52
49801;BME280;35698;50.232;30.540;2023-04-08T21:43:39;100989.36;;;14.97;74.32
49801;BME280;35698;50.232;30.540;2023-04-08T21:44:50;100995.60;;;15.11;74.53